createdAt,value
2023-05-09T00:02:11.369Z,7.10
2023-05-09T00:05:15.655Z,7.60
2023-05-09T00:08:19.535Z,6.82
2023-05-09T00:11:23.075Z,6.45
2023-05-09T00:14:26.738Z,6.68
2023-05-09T00:17:31.625Z,6.53
2023-05-09T00:20:35.059Z,6.25
2023-05-09T00:23:39.114Z,7.38
2023-05-09T00:26:42.458Z,6.97
2023-05-09T00:29:45.991Z,8.45
2023-05-09T00:32:49.326Z,8.05
2023-05-09T00:35:52.707Z,8.60
2023-05-09T00:38:56.335Z,8.38
2023-05-09T00:41:59.756Z,7.70
2023-05-09T00:45:03.665Z,7.38
2023-05-09T00:48:07.846Z,6.90
2023-05-09T00:51:11.382Z,6.75
2023-05-09T00:54:14.869Z,7.10
2023-05-09T00:57:18.338Z,6.80
2023-05-09T01:00:22.315Z,7.05
2023-05-09T01:03:25.934Z,6.97
2023-05-09T01:07:03.145Z,7.00
2023-05-09T01:10:27.207Z,6.63
2023-05-09T01:13:39.400Z,5.63
2023-05-09T01:17:25.108Z,6.78
2023-05-09T01:21:04.659Z,5.45
2023-05-09T01:24:22.658Z,4.93
2023-05-09T01:27:50.427Z,5.53
2023-05-09T01:30:56.443Z,6.30
2023-05-09T01:34:03.715Z,4.95
2023-05-09T01:37:08.229Z,5.90
2023-05-09T01:40:17.658Z,5.43
2023-05-09T01:43:22.744Z,6.22
2023-05-09T01:46:28.258Z,5.63
2023-05-09T01:49:34.534Z,5.00
2023-05-09T01:52:40.870Z,5.03
2023-05-09T01:55:45.295Z,4.97
2023-05-09T01:58:50.814Z,5.57
2023-05-09T02:01:56.146Z,5.15
2023-05-09T02:05:07.125Z,5.63
2023-05-09T02:08:11.469Z,5.57
2023-05-09T02:11:14.958Z,6.00
2023-05-09T02:14:18.747Z,6.63
2023-05-09T02:17:22.345Z,5.93
2023-05-09T02:20:25.632Z,7.25
2023-05-09T02:23:29.004Z,6.72
2023-05-09T02:26:32.937Z,5.70
2023-05-09T02:29:41.608Z,5.88
2023-05-09T02:32:47.848Z,5.97
2023-05-09T02:35:53.190Z,6.53
2023-05-09T02:38:56.874Z,6.57
2023-05-09T02:42:12.367Z,6.65
2023-05-09T02:45:17.129Z,6.32
2023-05-09T02:48:26.249Z,6.75
2023-05-09T02:51:29.693Z,7.47
2023-05-09T02:54:33.200Z,7.15
2023-05-09T02:57:37.228Z,8.02
2023-05-09T03:00:40.847Z,7.35
2023-05-09T03:03:44.831Z,7.10
2023-05-09T03:07:04.394Z,7.35
2023-05-09T03:10:13.637Z,7.43
2023-05-09T03:13:24.387Z,7.47
2023-05-09T03:16:27.989Z,8.73
2023-05-09T03:19:32.285Z,10.40
2023-05-09T03:22:35.846Z,9.05
2023-05-09T03:25:44.879Z,10.10
2023-05-09T03:28:49.653Z,9.32
2023-05-09T03:31:56.038Z,8.95
2023-05-09T03:34:59.782Z,8.73
2023-05-09T03:38:06.596Z,9.60
2023-05-09T03:41:16.222Z,7.57
2023-05-09T03:44:24.727Z,8.52
2023-05-09T03:47:29.529Z,8.15
2023-05-09T03:50:38.730Z,8.73
2023-05-09T03:53:49.079Z,8.70
2023-05-09T03:56:55.792Z,9.90
2023-05-09T04:00:09.260Z,10.27
2023-05-09T04:03:24.724Z,9.20
2023-05-09T04:07:14.053Z,10.73
2023-05-09T04:10:21.903Z,11.30
2023-05-09T04:13:44.352Z,11.27
2023-05-09T04:17:27.065Z,11.93
2023-05-09T04:20:36.845Z,13.98
2023-05-09T04:23:44.449Z,13.75
2023-05-09T04:26:49.573Z,13.45
2023-05-09T04:29:58.841Z,14.48
2023-05-09T04:33:03.187Z,12.68
2023-05-09T04:36:11.652Z,13.05
2023-05-09T04:39:22.613Z,14.38
2023-05-09T04:42:35.865Z,12.82
2023-05-09T04:45:45.390Z,12.65
2023-05-09T04:48:51.040Z,14.95
2023-05-09T04:52:19.324Z,11.82
2023-05-09T04:55:22.785Z,12.98
2023-05-09T04:58:30.706Z,14.35
2023-05-09T05:01:34.999Z,12.00
2023-05-09T05:04:41.687Z,15.25
2023-05-09T05:08:00.003Z,12.82
2023-05-09T05:11:12.090Z,12.25
2023-05-09T05:14:15.801Z,13.88
2023-05-09T05:17:44.480Z,14.68
2023-05-09T05:20:51.352Z,13.52
2023-05-09T05:23:55.124Z,13.18
2023-05-09T05:27:07.590Z,14.10
2023-05-09T05:30:36.275Z,14.90
2023-05-09T05:33:39.729Z,13.88
2023-05-09T05:36:44.101Z,14.23
2023-05-09T05:39:48.267Z,15.38
2023-05-09T05:42:52.070Z,13.35
2023-05-09T05:45:56.692Z,13.93
2023-05-09T05:52:43.933Z,16.92
2023-05-09T05:55:51.577Z,14.05
2023-05-09T05:58:55.820Z,15.93
2023-05-09T06:01:59.685Z,14.68
2023-05-09T06:05:10.508Z,15.52
2023-05-09T06:08:14.434Z,15.07
2023-05-09T06:11:18.520Z,16.10
2023-05-09T06:14:26.133Z,16.02
2023-05-09T06:17:30.182Z,16.52
2023-05-09T06:20:36.876Z,16.08
2023-05-09T06:23:56.892Z,14.85
2023-05-09T06:27:11.827Z,15.98
2023-05-09T06:30:26.393Z,16.27
2023-05-09T06:33:32.265Z,15.50
2023-05-09T06:36:36.261Z,20.10
2023-05-09T06:39:40.849Z,19.27
2023-05-09T06:42:46.800Z,17.10
2023-05-09T06:45:51.487Z,17.70
2023-05-09T06:48:55.227Z,16.60
2023-05-09T06:51:58.906Z,16.98
2023-05-09T06:55:02.427Z,17.60
2023-05-09T06:58:05.751Z,19.35
2023-05-09T07:01:18.657Z,16.50
2023-05-09T07:04:22.114Z,17.40
2023-05-09T07:07:28.653Z,17.77
2023-05-09T07:19:44.785Z,18.33
2023-05-09T07:22:48.215Z,19.08
2023-05-09T07:25:58.280Z,17.15
2023-05-09T07:29:01.691Z,17.17
2023-05-09T07:32:29.895Z,18.25
2023-05-09T07:35:36.310Z,17.33
2023-05-09T07:39:05.611Z,16.83
2023-05-09T07:42:09.144Z,20.08
2023-05-09T07:45:12.798Z,20.65
2023-05-09T07:48:19.119Z,19.30
2023-05-09T07:51:25.392Z,20.55
2023-05-09T07:54:28.956Z,19.63
2023-05-09T07:57:32.459Z,18.08
2023-05-09T08:00:36.022Z,19.17
2023-05-09T08:03:39.482Z,21.38
2023-05-09T08:06:42.831Z,19.88
2023-05-09T08:09:46.366Z,22.15
2023-05-09T08:12:50.119Z,19.75
2023-05-09T08:15:54.083Z,20.80
2023-05-09T08:18:57.430Z,20.38
2023-05-09T08:22:25.363Z,19.73
2023-05-09T08:25:28.778Z,22.92
2023-05-09T08:28:32.276Z,20.55
2023-05-09T08:31:35.533Z,22.77
2023-05-09T08:34:38.952Z,21.98
2023-05-09T08:37:42.332Z,25.38
2023-05-09T08:40:45.923Z,22.13
2023-05-09T08:43:50.391Z,23.67
2023-05-09T08:47:03.026Z,22.75
2023-05-09T08:50:07.197Z,25.80
2023-05-09T08:53:15.384Z,22.35
2023-05-09T08:56:24.491Z,24.88
2023-05-09T08:59:29.002Z,22.73
2023-05-09T09:02:33.609Z,28.33
2023-05-09T09:05:43.442Z,22.80
2023-05-09T09:08:49.568Z,24.63
2023-05-09T09:11:54.198Z,24.70
2023-05-09T09:14:59.872Z,25.10
2023-05-09T09:18:13.724Z,24.35
2023-05-09T09:21:19.235Z,25.00
2023-05-09T09:24:27.574Z,24.85
2023-05-09T09:27:31.428Z,24.85
2023-05-09T09:30:34.823Z,24.02
2023-05-09T09:33:38.103Z,26.98
2023-05-09T09:36:41.345Z,25.90
2023-05-09T09:39:57.911Z,26.02
2023-05-09T09:43:01.176Z,27.52
2023-05-09T09:46:05.863Z,26.35
2023-05-09T09:49:15.297Z,26.73
2023-05-09T09:52:28.166Z,42.78
2023-05-09T09:55:32.490Z,29.67
2023-05-09T09:58:35.791Z,25.17
2023-05-09T10:01:59.689Z,24.10
2023-05-09T10:05:11.528Z,27.35
2023-05-09T10:08:15.955Z,26.35
2023-05-09T10:11:20.189Z,26.38
2023-05-09T10:14:29.156Z,28.52
2023-05-09T10:17:33.406Z,27.40
2023-05-09T10:20:40.027Z,27.98
2023-05-09T10:26:57.220Z,29.50
2023-05-09T10:30:12.006Z,35.08
2023-05-09T10:33:20.839Z,28.33
2023-05-09T10:36:27.496Z,29.80
2023-05-09T10:39:31.698Z,29.90
2023-05-09T10:42:35.294Z,29.15
2023-05-09T10:45:39.686Z,28.70
2023-05-09T10:48:43.891Z,28.95
2023-05-09T10:51:47.533Z,30.15
2023-05-09T10:55:05.797Z,26.42
2023-05-09T10:58:21.353Z,27.13
2023-05-09T11:01:39.955Z,29.42
2023-05-09T11:04:46.585Z,28.42
2023-05-09T11:08:19.681Z,29.55
2023-05-09T11:11:26.370Z,29.77
2023-05-09T11:17:39.992Z,28.50
2023-05-09T11:20:49.334Z,30.00
2023-05-09T11:23:55.129Z,33.10
2023-05-09T11:26:59.467Z,30.70
2023-05-09T11:30:10.105Z,30.95
2023-05-09T11:33:36.761Z,31.92
2023-05-09T11:36:48.807Z,38.70
2023-05-09T11:40:05.372Z,36.05
2023-05-09T11:43:10.009Z,31.63
2023-05-09T11:46:13.351Z,31.00
2023-05-09T11:49:18.429Z,31.45
2023-05-09T11:52:23.505Z,30.63
2023-05-09T11:55:30.646Z,30.92
2023-05-09T11:58:33.972Z,31.45
2023-05-09T12:01:37.558Z,33.05
2023-05-09T12:05:13.975Z,30.55
2023-05-09T12:08:17.552Z,28.42
2023-05-09T12:11:20.827Z,29.75
2023-05-09T12:14:28.991Z,28.92
2023-05-09T12:17:32.714Z,31.05
2023-05-09T12:20:51.033Z,29.10
2023-05-09T12:23:58.261Z,29.80
2023-05-09T12:27:01.772Z,28.92
2023-05-09T12:30:19.465Z,28.08
2023-05-09T12:33:23.136Z,27.95
2023-05-09T12:36:28.984Z,27.83
2023-05-09T12:39:32.660Z,28.13
2023-05-09T12:42:39.981Z,27.55
2023-05-09T12:45:54.371Z,28.67
2023-05-09T12:49:01.819Z,29.40
2023-05-09T12:52:24.181Z,27.42
2023-05-09T12:55:55.490Z,26.10
2023-05-09T12:58:58.807Z,26.98
2023-05-09T13:02:02.533Z,26.88
2023-05-09T13:05:27.642Z,26.45
2023-05-09T13:08:34.501Z,26.85
2023-05-09T13:14:43.947Z,29.55
2023-05-09T13:18:05.859Z,25.10
2023-05-09T13:21:09.219Z,26.08
2023-05-09T13:24:12.496Z,27.83
2023-05-09T13:27:15.785Z,26.35
2023-05-09T13:30:20.099Z,26.45
2023-05-09T13:33:26.549Z,27.08
2023-05-09T13:36:30.088Z,26.92
2023-05-09T13:39:33.476Z,29.63
2023-05-09T13:42:37.423Z,32.58
2023-05-09T13:45:40.734Z,32.97
2023-05-09T13:48:45.066Z,31.00
2023-05-09T13:51:49.338Z,29.33
2023-05-09T13:54:53.305Z,27.27
2023-05-09T13:57:56.586Z,26.77
2023-05-09T14:00:59.838Z,29.73
2023-05-09T14:04:03.467Z,26.27
2023-05-09T14:07:12.759Z,27.02
2023-05-09T14:10:40.682Z,30.13
2023-05-09T14:13:43.960Z,38.70
2023-05-09T14:16:47.403Z,42.53
2023-05-09T14:19:50.710Z,42.95
2023-05-09T14:22:55.773Z,42.80
2023-05-09T14:25:59.135Z,41.17
2023-05-09T14:29:03.839Z,42.72
2023-05-09T14:32:08.833Z,43.85
2023-05-09T14:35:12.180Z,42.92
2023-05-09T14:38:15.560Z,44.45
2023-05-09T14:41:21.313Z,45.63
2023-05-09T14:44:25.826Z,42.35
2023-05-09T14:47:29.346Z,39.53
2023-05-09T14:50:32.801Z,39.97
2023-05-09T14:53:40.476Z,40.00
2023-05-09T14:56:44.366Z,37.53
2023-05-09T14:59:50.177Z,39.78
2023-05-09T15:02:53.603Z,38.42
2023-05-09T15:05:56.980Z,38.90
2023-05-09T15:09:00.657Z,37.00
2023-05-09T15:12:03.988Z,39.20
2023-05-09T15:15:16.395Z,39.70
2023-05-09T15:18:23.978Z,38.50
2023-05-09T15:21:30.385Z,37.47
2023-05-09T15:24:33.694Z,36.42
2023-05-09T15:27:37.777Z,54.10
2023-05-09T15:30:42.266Z,39.35
2023-05-09T15:33:51.470Z,36.20
2023-05-09T15:36:54.737Z,37.22
2023-05-09T15:40:04.556Z,36.15
2023-05-09T15:43:08.641Z,35.05
2023-05-09T15:46:15.733Z,37.38
2023-05-09T15:49:19.482Z,36.83
2023-05-09T15:52:22.754Z,36.33
2023-05-09T15:55:28.532Z,36.10
2023-05-09T15:58:32.413Z,37.90
2023-05-09T16:01:35.723Z,38.05
2023-05-09T16:04:39.278Z,38.85
2023-05-09T16:07:46.553Z,39.42
2023-05-09T16:10:50.010Z,35.58
2023-05-09T16:13:53.318Z,34.40
2023-05-09T16:16:56.940Z,35.63
2023-05-09T16:20:00.720Z,33.75
2023-05-09T16:23:04.684Z,32.53
2023-05-09T16:26:08.222Z,32.50
2023-05-09T16:29:13.317Z,34.13
2023-05-09T16:32:16.876Z,32.15
2023-05-09T16:35:20.230Z,32.47
2023-05-09T16:38:27.103Z,33.20
2023-05-09T16:41:31.025Z,40.60
2023-05-09T16:44:34.400Z,31.73
2023-05-09T16:47:40.640Z,31.70
2023-05-09T16:50:45.710Z,32.92
2023-05-09T16:53:58.561Z,33.40
2023-05-09T16:57:27.226Z,30.98
2023-05-09T17:00:31.029Z,31.00
2023-05-09T17:03:34.917Z,32.10
2023-05-09T17:06:38.215Z,32.67
2023-05-09T17:09:41.576Z,34.30
2023-05-09T17:12:44.842Z,34.47
2023-05-09T17:15:48.161Z,34.92
2023-05-09T17:18:52.693Z,35.88
2023-05-09T17:21:56.769Z,33.95
2023-05-09T17:25:00.155Z,36.10
2023-05-09T17:28:03.636Z,35.13
2023-05-09T17:31:07.052Z,32.75
2023-05-09T17:34:10.391Z,33.28
2023-05-09T17:37:13.779Z,31.83
2023-05-09T17:40:42.400Z,29.67
2023-05-09T17:43:45.733Z,29.27
2023-05-09T17:46:51.379Z,31.05
2023-05-09T17:49:57.706Z,26.25
2023-05-09T17:53:01.220Z,27.55
2023-05-09T17:56:04.859Z,28.60
2023-05-09T17:59:08.718Z,29.17
2023-05-09T18:02:12.087Z,29.00
2023-05-09T18:05:15.401Z,29.30
2023-05-09T18:08:20.825Z,28.60
2023-05-09T18:11:25.199Z,29.95
2023-05-09T18:14:29.124Z,30.67
2023-05-09T18:17:32.551Z,30.42
2023-05-09T18:20:35.854Z,31.63
2023-05-09T18:24:04.837Z,35.05
2023-05-09T18:27:08.443Z,34.45
2023-05-09T18:30:12.253Z,34.10
2023-05-09T18:33:15.897Z,35.58
2023-05-09T18:36:23.170Z,31.85
2023-05-09T18:42:29.778Z,26.95
2023-05-09T18:45:34.888Z,26.98
2023-05-09T18:48:38.227Z,28.33
2023-05-09T18:51:41.797Z,26.10
2023-05-09T18:54:45.109Z,29.02
2023-05-09T18:57:49.607Z,28.10
2023-05-09T19:00:53.635Z,27.90
2023-05-09T19:03:56.951Z,25.98
2023-05-09T19:07:00.715Z,25.90
2023-05-09T19:10:05.328Z,27.05
2023-05-09T19:13:37.882Z,26.25
2023-05-09T19:16:41.414Z,26.85
2023-05-09T19:19:44.678Z,27.20
2023-05-09T19:22:53.798Z,28.63
2023-05-09T19:26:00.659Z,28.02
2023-05-09T19:29:12.842Z,26.75
2023-05-09T19:32:16.154Z,26.08
2023-05-09T19:35:19.667Z,29.23
2023-05-09T19:38:26.157Z,30.60
2023-05-09T19:41:32.808Z,28.13
2023-05-09T19:44:38.089Z,28.73
2023-05-09T19:47:42.178Z,30.95
2023-05-09T19:50:46.823Z,27.83
2023-05-09T19:53:53.670Z,28.67
2023-05-09T19:56:59.202Z,29.38
2023-05-09T20:00:02.569Z,28.02
2023-05-09T20:03:09.204Z,24.88
2023-05-09T20:06:16.489Z,26.02
2023-05-09T20:09:22.858Z,24.40
2023-05-09T20:12:26.850Z,25.45
2023-05-09T20:15:32.072Z,26.45
2023-05-09T20:18:35.669Z,25.73
2023-05-09T20:21:38.965Z,27.73
2023-05-09T20:24:42.325Z,27.45
2023-05-09T20:27:45.639Z,25.17
2023-05-09T20:30:51.366Z,27.80
2023-05-09T20:33:55.299Z,25.80
2023-05-09T20:36:58.706Z,28.88
2023-05-09T20:40:03.418Z,27.75
2023-05-09T20:43:10.185Z,25.15
2023-05-09T20:46:14.684Z,24.92
2023-05-09T20:49:21.066Z,24.73
2023-05-09T20:52:33.253Z,26.02
2023-05-09T20:55:36.973Z,25.92
2023-05-09T20:58:40.373Z,25.75
2023-05-09T21:01:44.643Z,24.95
2023-05-09T21:04:47.972Z,26.13
2023-05-09T21:07:51.411Z,26.33
2023-05-09T21:10:55.046Z,27.42
2023-05-09T21:13:58.514Z,26.70
2023-05-09T21:17:01.838Z,27.40
2023-05-09T21:20:05.516Z,26.52
2023-05-09T21:23:09.108Z,29.10
2023-05-09T21:26:12.383Z,32.05
2023-05-09T21:29:15.606Z,30.80
2023-05-09T21:32:18.949Z,30.80
2023-05-09T21:35:22.375Z,29.73
2023-05-09T21:38:25.701Z,31.90
2023-05-09T21:41:28.997Z,29.48
2023-05-09T21:44:32.436Z,30.17
2023-05-09T21:47:36.170Z,30.95
2023-05-09T21:50:39.568Z,29.50
2023-05-09T21:53:42.959Z,33.25
2023-05-09T21:56:46.266Z,30.40
2023-05-09T21:59:49.814Z,27.92
2023-05-09T22:02:53.138Z,28.90
2023-05-09T22:05:56.682Z,26.90
2023-05-09T22:08:59.947Z,29.23
2023-05-09T22:12:04.651Z,27.70
2023-05-09T22:15:09.348Z,30.85
2023-05-09T22:18:12.783Z,26.63
2023-05-09T22:21:16.145Z,29.88
2023-05-09T22:24:23.586Z,29.40
2023-05-09T22:27:26.917Z,30.50
2023-05-09T22:30:30.809Z,28.17
2023-05-09T22:33:35.264Z,29.23
2023-05-09T22:36:38.635Z,29.10
2023-05-09T22:39:42.044Z,30.23
2023-05-09T22:42:45.319Z,31.83
2023-05-09T22:45:51.673Z,36.42
2023-05-09T22:48:55.014Z,35.20
2023-05-09T22:51:58.523Z,31.77
2023-05-09T22:55:02.140Z,32.00
2023-05-09T22:58:09.102Z,31.95
2023-05-09T23:01:15.740Z,32.03
2023-05-09T23:04:19.324Z,32.47
2023-05-09T23:07:22.616Z,34.30
2023-05-09T23:10:26.108Z,32.30
2023-05-09T23:13:29.632Z,35.97
2023-05-09T23:16:33.107Z,35.05
2023-05-09T23:19:36.474Z,39.17
2023-05-09T23:22:43.886Z,36.95
2023-05-09T23:25:47.223Z,39.08
2023-05-09T23:28:55.919Z,39.28
2023-05-09T23:31:59.184Z,37.42
2023-05-09T23:35:07.256Z,35.45
2023-05-09T23:38:16.778Z,36.63
2023-05-09T23:41:26.511Z,39.63
2023-05-09T23:44:30.815Z,40.38
2023-05-09T23:51:57.972Z,40.88
2023-05-09T23:55:01.325Z,41.30
2023-05-09T23:58:32.582Z,40.28
